Time;durP1;ratioP1;P1;durP2;ratioP2;P2;SDS_P1;SDS_P2;PMS_P1;PMS_P2;Temp;Humidity;BMP_temperature;BMP_pressure;BME280_temperature;BME280_humidity;BME280_pressure;Samples;Min_cycle;Max_cycle;Signal;HPM_P1;HPM_P2
2021/03/15 00:00:26;;;;;;;2.15;1.63;;;5.00;1.00;;;;;;5054151;28;20191;-72
2021/03/15 00:02:52;;;;;;;2.20;2.00;;;;;;;;;;5063837;28;20203;-77
2021/03/15 00:05:19;;;;;;;4.15;1.60;;;5.00;1.00;;;;;;5074534;28;20147;-77
2021/03/15 00:07:45;;;;;;;5.35;1.80;;;5.00;1.00;;;;;;5074422;28;20162;-77
2021/03/15 00:10:16;;;;;;;2.20;1.48;;;5.00;1.00;;;;;;5063242;28;20171;-77
2021/03/15 00:12:52;;;;;;;1.30;1.20;;;5.00;1.00;;;;;;5054288;28;20171;-77
2021/03/15 00:15:23;;;;;;;1.90;1.80;;;4.90;1.00;;;;;;5053898;28;20672;-77
2021/03/15 00:17:49;;;;;;;3.63;2.00;;;4.90;1.00;;;;;;5054498;28;20171;-72
2021/03/15 00:20:17;;;;;;;1.98;1.88;;;4.80;1.00;;;;;;5053803;28;20164;-72
2021/03/15 00:22:44;;;;;;;1.40;1.30;;;4.80;1.00;;;;;;5053677;28;20274;-72
2021/03/15 00:25:11;;;;;;;2.58;1.60;;;4.80;1.00;;;;;;5053394;28;20246;-72
2021/03/15 00:27:37;;;;;;;2.83;2.10;;;4.80;1.00;;;;;;5053784;28;20160;-72
2021/03/15 00:30:05;;;;;;;1.90;1.75;;;4.70;1.00;;;;;;5063359;28;20183;-72
2021/03/15 00:32:31;;;;;;;7.68;2.17;;;4.70;1.00;;;;;;5073080;28;20209;-72
2021/03/15 00:34:57;;;;;;;3.07;1.50;;;;;;;;;;5073870;28;20328;-72
2021/03/15 00:37:23;;;;;;;5.68;1.67;;;4.70;1.00;;;;;;5073530;28;20642;-72
2021/03/15 00:39:49;;;;;;;5.40;1.83;;;;;;;;;;5073456;28;20166;-72
2021/03/15 00:42:15;;;;;;;5.22;1.80;;;;;;;;;;5072958;28;20222;-72
2021/03/15 00:44:41;;;;;;;1.95;1.73;;;4.80;1.00;;;;;;5066962;28;20244;-72
2021/03/15 00:47:15;;;;;;;2.00;1.57;;;4.80;1.00;;;;;;5064576;28;20626;-77
2021/03/15 00:49:41;;;;;;;1.75;1.65;;;4.80;1.00;;;;;;5054066;28;20265;-77
2021/03/15 00:52:33;;;;;;;2.90;1.53;;;4.80;1.00;;;;;;5054378;28;20590;-77
2021/03/15 00:54:59;;;;;;;1.70;1.60;;;4.80;1.00;;;;;;5053767;28;20242;-77
2021/03/15 00:57:27;;;;;;;1.97;1.70;;;4.90;1.00;;;;;;5054090;28;20187;-77
2021/03/15 01:00:10;;;;;;;3.60;2.08;;;4.90;1.00;;;;;;5069352;28;20555;-77
2021/03/15 01:02:36;;;;;;;5.57;1.85;;;4.90;1.00;;;;;;5054310;28;20198;-72
2021/03/15 01:05:03;;;;;;;1.27;1.17;;;4.90;1.00;;;;;;5053256;28;20239;-72
2021/03/15 01:07:29;;;;;;;4.22;2.15;;;;;;;;;;5053206;28;20568;-72
2021/03/15 01:09:55;;;;;;;1.85;1.73;;;;;;;;;;5053351;28;20587;-72
2021/03/15 01:12:21;;;;;;;1.60;1.42;;;5.00;1.00;;;;;;5070984;28;20167;-73
2021/03/15 01:14:47;;;;;;;2.17;1.70;;;5.00;1.00;;;;;;5071924;28;20706;-72
2021/03/15 01:17:27;;;;;;;2.27;1.87;;;4.90;1.00;;;;;;5059127;28;20262;-77
2021/03/15 01:20:06;;;;;;;2.80;1.75;;;4.90;1.00;;;;;;5053669;28;20903;-77
2021/03/15 01:22:40;;;;;;;2.75;1.65;;;4.90;1.00;;;;;;5068775;28;20569;-77
2021/03/15 01:25:18;;;;;;;2.20;2.00;;;4.80;1.00;;;;;;5053346;28;20169;-77
2021/03/15 01:27:58;;;;;;;1.60;1.50;;;4.90;1.00;;;;;;5057520;28;20155;-77
2021/03/15 01:30:30;;;;;;;3.13;1.70;;;4.70;1.00;;;;;;5068132;28;20664;-77
2021/03/15 01:32:56;;;;;;;5.57;1.70;;;4.60;1.00;;;;;;5057901;28;20261;-72
2021/03/15 01:35:22;;;;;;;2.90;1.38;;;4.60;1.00;;;;;;5057199;28;20172;-73
2021/03/15 01:37:48;;;;;;;1.87;1.60;;;4.50;1.00;;;;;;5061016;28;20177;-72
2021/03/15 01:40:15;;;;;;;4.75;2.28;;;4.50;1.00;;;;;;5076778;28;20404;-72
2021/03/15 01:42:46;;;;;;;2.78;1.70;;;4.50;1.00;;;;;;5076391;28;20214;-72
2021/03/15 01:45:12;;;;;;;3.33;2.08;;;4.50;1.00;;;;;;5069872;28;20230;-72
2021/03/15 01:47:52;;;;;;;3.92;1.83;;;4.50;1.00;;;;;;5057029;28;20160;-77
2021/03/15 01:50:22;;;;;;;2.03;1.83;;;4.40;1.00;;;;;;5056107;28;20603;-77
2021/03/15 01:52:58;;;;;;;1.90;1.77;;;4.40;1.00;;;;;;5072242;28;20190;-77
2021/03/15 01:55:28;;;;;;;2.33;1.85;;;4.40;1.00;;;;;;5056947;28;20160;-77
2021/03/15 01:57:53;;;;;;;5.30;2.22;;;4.30;1.00;;;;;;5057035;28;20255;-77
2021/03/15 02:00:35;;;;;;;9.50;2.50;;;4.30;1.00;;;;;;5056951;28;20202;-77
2021/03/15 02:03:10;;;;;;;11.25;2.28;;;4.40;1.00;;;;;;5057340;28;20192;-78
2021/03/15 02:05:41;;;;;;;5.28;3.00;;;4.30;1.00;;;;;;5056472;28;20151;-77
2021/03/15 02:08:33;;;;;;;2.45;1.95;;;4.30;1.00;;;;;;5056950;28;20156;-77
2021/03/15 02:11:11;;;;;;;3.05;2.35;;;4.40;1.00;;;;;;5056579;28;20234;-77
2021/03/15 02:14:01;;;;;;;1.70;1.60;;;4.40;1.00;;;;;;5072283;28;20241;-77
2021/03/15 02:16:39;;;;;;;4.45;2.55;;;4.40;1.00;;;;;;5057166;28;20176;-77
2021/03/15 02:19:48;;;;;;;5.97;2.65;;;4.40;1.00;;;;;;5057146;28;20590;-77
2021/03/15 02:22:56;;;;;;;4.80;2.30;;;4.50;1.00;;;;;;5056606;28;20199;-77
2021/03/15 02:25:45;;;;;;;6.55;2.17;;;4.50;1.00;;;;;;5054146;28;20198;-77
2021/03/15 02:28:19;;;;;;;2.75;2.45;;;4.50;1.00;;;;;;5053695;28;20570;-77
2021/03/15 02:31:24;;;;;;;5.47;2.28;;;4.50;1.00;;;;;;5049994;28;20190;-77
2021/03/15 02:34:39;;;;;;;5.38;2.80;;;4.50;1.00;;;;;;5054223;28;20181;-77
2021/03/15 02:37:15;;;;;;;4.68;3.05;;;4.50;1.00;;;;;;5053478;28;20180;-77
2021/03/15 02:40:35;;;;;;;4.93;2.40;;;4.50;1.00;;;;;;5053810;28;20164;-77
2021/03/15 02:43:16;;;;;;;3.80;2.50;;;4.60;1.00;;;;;;4994770;28;20236;-77
2021/03/15 02:45:44;;;;;;;5.07;2.75;;;4.70;1.00;;;;;;4993152;28;20189;-77
2021/03/15 02:48:17;;;;;;;4.03;2.78;;;4.70;1.00;;;;;;4995008;28;20241;-77
2021/03/15 02:51:05;;;;;;;3.35;2.15;;;4.70;1.00;;;;;;4994045;28;20188;-77
2021/03/15 02:53:35;;;;;;;5.15;2.80;;;4.70;1.00;;;;;;4994360;28;20180;-77
2021/03/15 02:56:16;;;;;;;3.72;2.80;;;4.70;1.00;;;;;;4994847;28;20217;-77
2021/03/15 02:58:47;;;;;;;4.82;2.65;;;4.80;1.00;;;;;;4994219;28;20217;-77
2021/03/15 03:01:18;;;;;;;6.60;3.38;;;4.80;1.00;;;;;;5007548;28;20232;-77
2021/03/15 03:03:49;;;;;;;6.30;2.80;;;4.90;1.00;;;;;;5013871;28;20193;-72
2021/03/15 03:06:18;;;;;;;6.53;2.95;;;4.90;1.00;;;;;;5013097;28;20518;-73
2021/03/15 03:08:46;;;;;;;8.73;3.17;;;4.90;1.00;;;;;;5013063;28;20320;-72
2021/03/15 03:11:13;;;;;;;8.45;2.92;;;5.00;1.00;;;;;;5013044;28;20179;-72
2021/03/15 03:13:42;;;;;;;12.38;3.47;;;5.00;1.00;;;;;;5015059;28;20176;-73
2021/03/15 03:16:08;;;;;;;3.22;2.45;;;4.90;1.00;;;;;;5039193;28;20259;-73
2021/03/15 03:18:49;;;;;;;7.63;3.20;;;5.00;1.00;;;;;;5075149;28;20162;-72
2021/03/15 03:21:20;;;;;;;4.60;3.40;;;5.00;1.00;;;;;;5073557;28;20206;-72
2021/03/15 03:23:50;;;;;;;11.05;3.92;;;5.00;1.00;;;;;;5074577;28;20273;-73
2021/03/15 03:26:17;;;;;;;6.78;3.63;;;5.00;1.00;;;;;;5074771;28;20509;-73
2021/03/15 03:28:45;;;;;;;10.90;4.22;;;5.00;1.00;;;;;;5074416;28;20614;-73
2021/03/15 03:31:11;;;;;;;6.15;3.58;;;5.00;1.00;;;;;;5074587;28;20183;-72
2021/03/15 03:33:37;;;;;;;5.30;3.33;;;5.00;1.00;;;;;;5074904;28;20167;-73
2021/03/15 03:36:04;;;;;;;6.13;3.70;;;5.00;1.00;;;;;;5074736;28;20602;-72
2021/03/15 03:38:30;;;;;;;8.50;4.25;;;5.00;1.00;;;;;;5072957;28;20533;-73
2021/03/15 03:40:57;;;;;;;11.05;5.15;;;5.00;1.00;;;;;;5074338;28;20171;-73
2021/03/15 03:43:22;;;;;;;6.15;3.80;;;5.00;1.00;;;;;;5054853;28;20175;-72
2021/03/15 03:45:48;;;;;;;8.57;3.60;;;5.00;1.00;;;;;;5061175;28;20179;-72
2021/03/15 03:48:15;;;;;;;8.30;3.80;;;5.10;1.00;;;;;;5073371;28;20207;-73
2021/03/15 03:50:41;;;;;;;5.20;3.85;;;5.10;1.00;;;;;;5074319;28;20553;-73
2021/03/15 03:53:36;;;;;;;5.50;3.53;;;5.00;1.00;;;;;;5074273;28;20174;-73
2021/03/15 03:56:02;;;;;;;8.20;3.70;;;5.10;1.00;;;;;;5074229;28;20723;-72
2021/03/15 03:58:31;;;;;;;6.70;3.40;;;5.20;1.00;;;;;;5073943;28;20178;-72
2021/03/15 04:00:58;;;;;;;5.65;3.40;;;5.20;1.00;;;;;;5074097;28;20155;-73
2021/03/15 04:03:28;;;;;;;7.43;3.55;;;5.20;1.00;;;;;;5074568;28;20183;-72
2021/03/15 04:06:03;;;;;;;9.30;3.40;;;5.20;1.00;;;;;;5074029;28;20161;-73
2021/03/15 04:08:53;;;;;;;7.13;4.15;;;5.20;1.00;;;;;;5074190;28;20615;-73
2021/03/15 04:11:20;;;;;;;9.02;3.88;;;5.20;1.00;;;;;;5074092;28;20167;-72
2021/03/15 04:13:50;;;;;;;11.70;3.72;;;5.20;1.00;;;;;;5061217;28;20184;-72
2021/03/15 04:16:18;;;;;;;8.48;3.83;;;5.20;1.00;;;;;;5053561;28;20615;-73
2021/03/15 04:18:51;;;;;;;6.03;2.85;;;5.30;1.00;;;;;;5051988;28;20160;-77
2021/03/15 04:21:24;;;;;;;4.60;3.10;;;5.20;1.00;;;;;;5073249;28;20587;-77
2021/03/15 04:23:59;;;;;;;4.45;3.03;;;5.20;1.00;;;;;;5084761;28;20182;-78
2021/03/15 04:26:26;;;;;;;5.82;3.15;;;5.10;1.00;;;;;;5073910;28;20613;-77
2021/03/15 04:28:53;;;;;;;4.85;3.33;;;5.10;1.00;;;;;;5059798;28;20203;-77
2021/03/15 04:31:35;;;;;;;3.83;2.33;;;5.10;1.00;;;;;;5073932;28;20216;-78
2021/03/15 04:34:02;;;;;;;8.93;3.85;;;5.10;1.00;;;;;;5074526;28;20183;-73
2021/03/15 04:36:28;;;;;;;3.58;2.75;;;5.10;1.00;;;;;;5074032;28;20530;-73
2021/03/15 04:38:57;;;;;;;6.65;3.45;;;5.00;1.00;;;;;;5073747;28;20630;-73
2021/03/15 04:41:23;;;;;;;6.97;3.43;;;5.00;1.00;;;;;;5073325;28;20539;-73
2021/03/15 04:43:49;;;;;;;10.20;3.80;;;5.00;1.00;;;;;;5072929;28;20504;-73
2021/03/15 04:46:17;;;;;;;8.32;4.15;;;5.00;1.00;;;;;;5070433;28;20429;-73
2021/03/15 04:48:47;;;;;;;6.82;3.33;;;5.00;1.00;;;;;;5072799;28;20226;-77
2021/03/15 04:51:16;;;;;;;4.63;3.15;;;5.10;1.00;;;;;;5073491;28;20213;-73
2021/03/15 04:53:43;;;;;;;7.22;3.67;;;5.10;1.00;;;;;;5073498;28;20216;-72
2021/03/15 04:56:13;;;;;;;8.27;3.00;;;5.10;1.00;;;;;;5073522;28;20167;-73
2021/03/15 04:58:42;;;;;;;9.35;3.95;;;5.10;1.00;;;;;;5072797;28;20178;-73
2021/03/15 05:01:09;;;;;;;9.63;4.15;;;5.10;1.00;;;;;;5075649;28;20193;-73
2021/03/15 05:03:37;;;;;;;6.00;3.83;;;5.20;1.00;;;;;;5076148;28;20220;-73
2021/03/15 05:06:06;;;;;;;8.57;4.10;;;5.10;1.00;;;;;;5078041;28;20389;-78
2021/03/15 05:08:36;;;;;;;4.78;3.35;;;5.20;1.00;;;;;;5077865;28;20385;-77
2021/03/15 05:11:03;;;;;;;10.32;3.30;;;5.20;1.00;;;;;;5077796;28;20183;-78
2021/03/15 05:13:34;;;;;;;9.50;4.55;;;7.50;1.00;;;;;;5076270;28;20638;-77
2021/03/15 05:16:02;;;;;;;9.00;4.00;;;5.20;1.00;;;;;;5077784;28;20167;-77
2021/03/15 05:18:34;;;;;;;9.13;4.97;;;5.20;1.00;;;;;;5077384;28;20194;-77
2021/03/15 05:21:01;;;;;;;10.52;4.65;;;5.20;1.00;;;;;;5075948;28;20175;-73
2021/03/15 05:23:28;;;;;;;6.93;3.85;;;5.20;1.00;;;;;;5060274;28;20176;-73
2021/03/15 05:25:55;;;;;;;12.43;3.85;;;5.20;1.00;;;;;;5056808;28;20179;-73
2021/03/15 05:28:23;;;;;;;5.82;3.25;;;5.20;1.00;;;;;;5057434;28;20225;-73
2021/03/15 05:30:51;;;;;;;6.97;3.60;;;5.20;1.00;;;;;;5073182;28;20229;-73
2021/03/15 05:33:19;;;;;;;5.55;3.55;;;5.30;1.00;;;;;;5077243;28;20337;-75
2021/03/15 05:35:49;;;;;;;6.43;3.72;;;5.20;1.00;;;;;;5077376;28;20190;-73
2021/03/15 05:38:16;;;;;;;10.52;3.28;;;5.30;1.00;;;;;;5076872;28;20240;-73
2021/03/15 05:40:43;;;;;;;7.60;3.90;;;5.20;1.00;;;;;;5076974;28;20535;-73
2021/03/15 05:43:24;;;;;;;4.80;3.15;;;5.20;1.00;;;;;;5076185;28;20249;-74
2021/03/15 05:46:28;;;;;;;6.15;3.10;;;5.20;1.00;;;;;;5076855;28;20159;-73
2021/03/15 05:49:25;;;;;;;6.45;3.55;;;5.30;1.00;;;;;;5075293;28;20174;-73
2021/03/15 05:52:08;;;;;;;4.85;3.17;;;5.20;1.00;;;;;;5072130;28;20176;-74
2021/03/15 05:55:11;;;;;;;6.93;1.80;;;5.30;1.00;;;;;;5056757;28;20152;-79
2021/03/15 05:58:15;;;;;;;6.90;2.67;;;5.20;1.00;;;;;;5068601;28;20193;-73
2021/03/15 06:00:59;;;;;;;8.73;3.00;;;5.20;1.00;;;;;;5090412;28;20194;-73
2021/03/15 06:03:40;;;;;;;5.53;3.15;;;5.20;1.00;;;;;;5072335;28;20182;-73
2021/03/15 06:06:15;;;;;;;6.07;3.00;;;5.20;1.00;;;;;;5076854;28;20637;-78
2021/03/15 06:08:47;;;;;;;5.13;3.00;;;5.10;1.00;;;;;;5078356;28;20183;-77
2021/03/15 06:11:18;;;;;;;5.47;2.05;;;5.20;1.00;;;;;;5075592;28;20156;-78
2021/03/15 06:13:46;;;;;;;5.80;2.72;;;5.20;1.00;;;;;;5074884;28;20543;-78
2021/03/15 06:16:22;;;;;;;4.75;2.72;;;5.20;1.00;;;;;;5076453;28;20147;-77
2021/03/15 06:19:06;;;;;;;5.70;2.75;;;5.30;1.00;;;;;;5071287;28;20191;-77
2021/03/15 06:21:35;;;;;;;5.68;2.97;;;5.30;1.00;;;;;;5082862;28;20282;-73
2021/03/15 06:24:02;;;;;;;2.38;1.88;;;5.30;1.00;;;;;;5075211;28;20177;-73
2021/03/15 06:26:29;;;;;;;2.97;2.10;;;5.30;1.00;;;;;;5075814;28;20287;-73
2021/03/15 06:29:02;;;;;;;2.25;2.05;;;5.30;1.00;;;;;;5074113;28;20179;-73
2021/03/15 06:31:34;;;;;;;4.40;1.98;;;5.40;1.00;;;;;;5071854;28;20658;-74
2021/03/15 06:34:00;;;;;;;2.38;2.17;;;5.40;1.00;;;;;;5073654;28;20189;-73
2021/03/15 06:36:28;;;;;;;5.32;2.13;;;5.50;1.00;;;;;;5075275;28;20186;-77
2021/03/15 06:39:04;;;;;;;2.55;1.90;;;5.50;1.00;;;;;;5078026;28;20201;-78
2021/03/15 06:41:44;;;;;;;4.22;2.20;;;5.50;1.00;;;;;;5076059;28;20858;-77
2021/03/15 06:44:28;;;;;;;3.83;2.20;;;5.50;1.00;;;;;;5075944;28;20179;-78
2021/03/15 06:47:10;;;;;;;4.32;2.05;;;5.50;1.00;;;;;;5074403;28;20151;-77
2021/03/15 06:49:49;;;;;;;3.05;1.88;;;5.50;1.00;;;;;;5073156;28;20198;-78
2021/03/15 06:52:15;;;;;;;6.93;1.65;;;5.40;1.00;;;;;;5075168;28;20194;-73
2021/03/15 06:54:40;;;;;;;1.60;1.50;;;5.50;1.00;;;;;;5072337;28;20191;-73
2021/03/15 06:57:22;;;;;;;4.40;2.23;;;5.50;1.00;;;;;;5068550;28;20210;-73
2021/03/15 06:59:51;;;;;;;4.70;1.90;;;5.50;1.00;;;;;;5072914;28;20167;-73
2021/03/15 07:02:35;;;;;;;2.35;1.20;;;5.50;1.00;;;;;;5074015;28;20194;-73
2021/03/15 07:05:09;;;;;;;2.97;1.60;;;5.40;1.00;;;;;;5065064;28;20167;-73
2021/03/15 07:07:38;;;;;;;1.63;1.10;;;5.50;1.00;;;;;;5075081;28;20204;-73
2021/03/15 07:10:25;;;;;;;5.30;1.70;;;5.50;1.00;;;;;;5064348;28;20222;-73
2021/03/15 07:13:10;;;;;;;1.23;1.13;;;5.50;1.00;;;;;;5061523;28;20190;-73
2021/03/15 07:15:38;;;;;;;1.35;1.27;;;5.50;1.00;;;;;;5077090;28;20182;-73
2021/03/15 07:18:18;;;;;;;1.63;1.13;;;5.60;1.00;;;;;;5073064;28;20182;-73
2021/03/15 07:20:48;;;;;;;1.25;1.15;;;5.70;1.00;;;;;;5062052;28;20174;-78
2021/03/15 07:23:43;;;;;;;4.60;1.35;;;5.80;1.00;;;;;;5075160;28;20529;-77
2021/03/15 07:26:19;;;;;;;1.30;1.20;;;5.80;1.00;;;;;;5074686;28;20166;-78
2021/03/15 07:28:52;;;;;;;2.80;1.70;;;6.00;1.00;;;;;;5070848;28;20417;-78
2021/03/15 07:31:34;;;;;;;1.20;1.10;;;6.10;1.00;;;;;;5074777;28;20404;-78
2021/03/15 07:34:13;;;;;;;1.30;1.20;;;6.10;1.00;;;;;;5074089;28;20436;-78
2021/03/15 07:36:49;;;;;;;1.87;1.03;;;6.10;1.00;;;;;;5075033;28;20421;-78
2021/03/15 07:39:16;;;;;;;1.27;1.17;;;6.10;1.00;;;;;;5085218;28;20441;-79
2021/03/15 07:41:46;;;;;;;1.88;1.10;;;6.00;1.00;;;;;;5093960;28;20444;-78
2021/03/15 07:44:21;;;;;;;1.43;0.97;;;5.90;1.00;;;;;;5093885;28;20186;-78
2021/03/15 07:46:47;;;;;;;1.53;1.40;;;;;;;;;;5094122;28;20871;-78
2021/03/15 07:49:41;;;;;;;1.27;0.97;;;6.00;1.00;;;;;;5083316;28;20439;-77
2021/03/15 07:52:11;;;;;;;1.30;1.20;;;6.10;1.00;;;;;;5067646;28;20437;-73
2021/03/15 07:54:39;;;;;;;1.67;1.20;;;6.20;1.00;;;;;;5068527;28;20406;-73
2021/03/15 07:57:10;;;;;;;1.63;1.30;;;6.30;1.00;;;;;;5084018;28;20492;-73
2021/03/15 07:59:37;;;;;;;1.13;1.03;;;6.30;1.00;;;;;;5071583;28;20454;-73
2021/03/15 08:02:03;;;;;;;0.70;0.70;;;6.30;1.00;;;;;;5073309;28;20437;-73
2021/03/15 08:04:30;;;;;;;1.03;0.90;;;6.20;1.00;;;;;;5073264;28;20396;-73
2021/03/15 08:06:56;;;;;;;3.33;1.30;;;6.20;1.00;;;;;;5072342;28;20401;-73
2021/03/15 08:09:22;;;;;;;1.30;1.20;;;;;;;;;;5053180;28;20748;-73
2021/03/15 08:11:50;;;;;;;1.10;1.10;;;6.20;1.00;;;;;;5053144;28;20395;-73
2021/03/15 08:14:18;;;;;;;1.77;1.53;;;6.20;1.00;;;;;;5055239;28;20404;-73
2021/03/15 08:16:46;;;;;;;1.97;1.60;;;6.20;1.00;;;;;;5067718;28;20409;-73
2021/03/15 08:19:12;;;;;;;1.97;1.47;;;;;;;;;;5083515;28;20433;-73
2021/03/15 08:21:38;;;;;;;3.53;1.40;;;;;;;;;;5056748;28;21038;-78
2021/03/15 08:24:07;;;;;;;1.30;1.20;;;6.60;1.00;;;;;;5072956;28;20401;-77
2021/03/15 08:26:33;;;;;;;1.40;0.97;;;6.60;1.00;;;;;;5072634;28;20393;-78
2021/03/15 08:29:01;;;;;;;2.07;1.33;;;6.70;1.00;;;;;;5073174;28;20421;-78
2021/03/15 08:31:35;;;;;;;7.20;1.37;;;6.90;1.00;;;;;;5073103;28;20493;-78
2021/03/15 08:34:02;;;;;;;1.33;1.23;;;7.00;1.00;;;;;;5072704;28;20398;-78
2021/03/15 08:36:42;;;;;;;1.87;1.57;;;7.20;1.00;;;;;;5072019;28;20432;-78
2021/03/15 08:39:26;;;;;;;4.00;1.60;;;7.40;1.00;;;;;;5052933;28;20403;-77
2021/03/15 08:42:10;;;;;;;1.50;1.40;;;7.60;1.00;;;;;;5052496;28;20445;-77
2021/03/15 08:44:40;;;;;;;1.30;1.20;;;7.90;1.00;;;;;;5052798;28;20393;-78
2021/03/15 08:47:06;;;;;;;1.57;1.20;;;;;;;;;;5052825;28;20426;-78
2021/03/15 08:49:35;;;;;;;5.23;1.00;;;7.90;1.00;;;;;;5069724;28;20404;-77
2021/03/15 08:52:01;;;;;;;1.50;1.40;;;;;;;;;;5067780;28;21056;-73
2021/03/15 08:54:41;;;;;;;1.00;0.90;;;8.10;1.00;;;;;;5067945;28;20458;-73
2021/03/15 08:57:27;;;;;;;2.80;1.20;;;8.20;1.00;;;;;;5082226;28;20431;-73
2021/03/15 08:59:53;;;;;;;0.90;0.90;;;;;;;;;;5083326;28;20589;-73
2021/03/15 09:02:33;;;;;;;1.57;1.17;;;8.50;1.00;;;;;;5072275;28;20567;-74
2021/03/15 09:05:22;;;;;;;1.47;1.30;;;8.70;1.00;;;;;;5052650;28;20755;-73
2021/03/15 09:07:49;;;;;;;1.00;1.00;;;;;;;;;;5066100;28;20405;-73
2021/03/15 09:10:23;;;;;;;1.10;1.00;;;8.70;1.00;;;;;;5077369;28;20415;-73
2021/03/15 09:13:15;;;;;;;1.00;0.93;;;8.80;1.00;;;;;;5076873;28;20434;-73
2021/03/15 09:15:42;;;;;;;1.03;0.93;;;8.80;1.00;;;;;;5084207;28;20412;-73
2021/03/15 09:18:48;;;;;;;1.63;0.80;;;8.80;1.00;;;;;;5071777;28;20526;-74
2021/03/15 09:21:23;;;;;;;0.70;0.70;;;8.90;1.00;;;;;;5028749;28;20430;-75
2021/03/15 09:23:50;;;;;;;1.03;0.60;;;9.00;1.00;;;;;;5030157;28;20508;-75
2021/03/15 09:26:25;;;;;;;2.10;0.70;;;8.90;1.00;;;;;;5029732;28;20403;-76
2021/03/15 09:28:54;;;;;;;1.10;0.80;;;8.90;1.00;;;;;;5025956;28;20462;-77
2021/03/15 09:31:20;;;;;;;0.67;0.67;;;;;;;;;;5029242;28;20427;-76
2021/03/15 09:33:47;;;;;;;0.50;0.50;;;;;;;;;;4998784;28;20509;-76
2021/03/15 09:36:13;;;;;;;0.83;0.80;;;;;;;;;;5027509;28;20445;-76
2021/03/15 09:38:39;;;;;;;1.43;0.63;;;8.30;1.00;;;;;;5029949;28;20518;-76
2021/03/15 09:41:06;;;;;;;0.50;0.50;;;8.00;1.00;;;;;;5017258;28;20426;-76
2021/03/15 09:43:32;;;;;;;1.90;0.67;;;;;;;;;;5030477;28;20901;-77
2021/03/15 09:46:00;;;;;;;0.50;0.50;;;7.90;1.00;;;;;;5028643;28;20901;-78
2021/03/15 09:48:27;;;;;;;0.67;0.50;;;7.90;1.00;;;;;;5028852;28;20430;-78
2021/03/15 09:50:54;;;;;;;0.50;0.40;;;7.90;1.00;;;;;;5017007;28;20411;-78
2021/03/15 09:53:20;;;;;;;0.60;0.53;;;;;;;;;;5031687;28;20570;-73
2021/03/15 09:55:46;;;;;;;0.70;0.50;;;8.00;1.00;;;;;;5036153;28;20437;-72
2021/03/15 09:58:16;;;;;;;0.47;0.47;;;8.10;1.00;;;;;;5055590;28;20429;-73
2021/03/15 10:00:42;;;;;;;0.40;0.40;;;;;;;;;;5063903;28;20417;-73
2021/03/15 10:03:08;;;;;;;0.63;0.63;;;;;;;;;;5073952;28;20935;-73
2021/03/15 10:05:34;;;;;;;0.50;0.50;;;;;;;;;;5074271;28;20417;-72
2021/03/15 10:08:00;;;;;;;0.50;0.50;;;;;;;;;;5075929;28;20390;-78
2021/03/15 10:10:26;;;;;;;0.80;0.57;;;;;;;;;;5073850;28;20821;-78
2021/03/15 10:13:06;;;;;;;1.00;0.60;;;8.00;1.00;;;;;;5075520;28;20410;-78
2021/03/15 10:15:34;;;;;;;0.70;0.60;;;8.00;1.00;;;;;;5075579;28;20458;-78
2021/03/15 10:18:00;;;;;;;0.67;0.60;;;;;;;;;;5075380;28;20405;-78
2021/03/15 10:20:34;;;;;;;1.23;0.60;;;8.10;1.00;;;;;;5062058;28;20453;-78
2021/03/15 10:23:11;;;;;;;1.00;0.70;;;8.30;1.00;;;;;;5075424;28;20460;-77
2021/03/15 10:25:37;;;;;;;2.67;0.60;;;;;;;;;;5061455;28;20414;-77
2021/03/15 10:28:04;;;;;;;0.90;0.80;;;;;;;;;;5060126;28;20504;-78
2021/03/15 10:30:34;;;;;;;1.23;0.70;;;9.10;1.00;;;;;;5073624;28;20809;-77
2021/03/15 10:33:01;;;;;;;1.60;0.70;;;9.50;1.00;;;;;;5075110;28;20414;-77
2021/03/15 10:35:29;;;;;;;0.70;0.70;;;9.80;1.00;;;;;;5075346;28;20880;-78
2021/03/15 10:37:59;;;;;;;0.70;0.60;;;9.90;1.00;;;;;;5072674;28;20444;-77
2021/03/15 10:40:26;;;;;;;5.90;2.20;;;;;;;;;;5063256;28;20498;-77
2021/03/15 10:42:52;;;;;;;0.70;0.70;;;;;;;;;;5064867;28;20829;-78
2021/03/15 10:45:18;;;;;;;0.70;0.70;;;;;;;;;;5077304;28;20937;-77
2021/03/15 10:47:44;;;;;;;0.73;0.70;;;;;;;;;;5074797;28;20389;-76
2021/03/15 10:50:26;;;;;;;1.30;0.67;;;10.00;1.00;;;;;;5074845;28;20392;-76
2021/03/15 10:52:52;;;;;;;0.77;0.77;;;10.10;1.00;;;;;;5072768;28;20465;-76
2021/03/15 10:55:32;;;;;;;0.90;0.90;;;;;;;;;;5072048;28;20461;-76
2021/03/15 10:58:15;;;;;;;2.53;0.90;;;10.70;1.00;;;;;;5075210;28;20398;-76
2021/03/15 11:00:59;;;;;;;3.47;1.03;;;10.90;1.00;;;;;;5075337;28;20405;-76
2021/03/15 11:03:28;;;;;;;0.93;0.90;;;10.90;1.00;;;;;;5074208;28;20445;-76
2021/03/15 11:06:15;;;;;;;0.97;0.73;;;10.90;1.00;;;;;;5074172;28;20558;-76
2021/03/15 11:08:51;;;;;;;0.70;0.70;;;11.00;1.00;;;;;;5075411;28;20480;-72
2021/03/15 11:11:22;;;;;;;0.80;0.80;;;11.10;1.00;;;;;;5074908;28;20432;-72
2021/03/15 11:13:50;;;;;;;3.60;1.20;;;11.10;1.00;;;;;;5074804;28;20400;-72
2021/03/15 11:16:22;;;;;;;1.70;0.90;;;11.00;1.00;;;;;;5074989;28;20394;-72
2021/03/15 11:18:49;;;;;;;1.43;0.77;;;11.00;1.00;;;;;;5075071;28;20476;-76
2021/03/15 11:21:16;;;;;;;0.77;0.77;;;11.00;1.00;;;;;;5074626;28;20467;-76
2021/03/15 11:23:46;;;;;;;1.10;0.83;;;11.10;1.00;;;;;;5073939;28;20900;-73
2021/03/15 11:26:16;;;;;;;1.83;0.97;;;10.90;1.00;;;;;;5074309;28;20750;-72
2021/03/15 11:28:50;;;;;;;1.00;0.80;;;10.80;1.00;;;;;;5074438;28;20418;-72
2021/03/15 11:31:18;;;;;;;9.50;3.03;;;10.80;1.00;;;;;;5058402;28;20492;-73
2021/03/15 11:33:55;;;;;;;1.10;0.60;;;11.20;1.00;;;;;;5094100;28;20445;-73
2021/03/15 11:36:23;;;;;;;0.67;0.67;;;11.30;1.00;;;;;;5079169;28;20432;-72
2021/03/15 11:38:54;;;;;;;1.73;1.00;;;11.50;1.00;;;;;;5072468;28;20418;-72
2021/03/15 11:41:23;;;;;;;1.33;0.70;;;11.80;1.00;;;;;;5074364;28;20728;-72
2021/03/15 11:43:49;;;;;;;1.10;0.90;;;11.90;1.00;;;;;;5070304;28;20440;-72
2021/03/15 11:46:15;;;;;;;8.13;2.97;;;11.90;1.00;;;;;;5070078;28;20431;-72
2021/03/15 11:48:41;;;;;;;0.70;0.70;;;11.40;1.00;;;;;;5072307;28;20413;-74
2021/03/15 11:51:09;;;;;;;1.17;0.93;;;11.20;1.00;;;;;;5073472;28;20897;-74
2021/03/15 11:53:35;;;;;;;1.83;1.10;;;;;;;;;;5073111;28;20430;-73
2021/03/15 11:56:00;;;;;;;1.20;1.00;;;11.50;1.00;;;;;;5071922;28;20443;-73
2021/03/15 11:58:26;;;;;;;7.80;1.40;;;11.50;1.00;;;;;;5070676;28;20783;-74
2021/03/15 12:00:52;;;;;;;0.87;0.87;;;11.50;1.00;;;;;;5073403;28;20159;-74
2021/03/15 12:03:18;;;;;;;0.93;0.70;;;;;;;;;;5073246;28;20195;-74
2021/03/15 12:05:44;;;;;;;3.53;1.30;;;11.30;1.00;;;;;;5071949;28;20196;-76
2021/03/15 12:08:09;;;;;;;3.87;1.43;;;;;;;;;;5073390;28;20752;-75
2021/03/15 12:10:36;;;;;;;0.80;0.80;;;;;;;;;;5071341;28;20185;-72
2021/03/15 12:13:03;;;;;;;3.50;1.70;;;10.70;1.00;;;;;;5058668;28;20499;-75
2021/03/15 12:15:29;;;;;;;3.10;1.70;;;10.10;1.00;;;;;;5073325;28;20402;-73
2021/03/15 12:17:55;;;;;;;1.40;1.30;;;;;;;;;;5073304;28;20425;-71
2021/03/15 12:20:20;;;;;;;1.77;1.40;;;9.90;1.00;;;;;;5073459;28;20407;-72
2021/03/15 12:23:10;;;;;;;1.80;1.40;;;9.80;1.00;;;;;;5071987;28;20449;-77
2021/03/15 12:25:39;;;;;;;2.20;1.53;;;9.80;1.00;;;;;;5073378;28;20507;-72
2021/03/15 12:28:06;;;;;;;2.33;1.53;;;9.80;1.00;;;;;;5070599;28;20769;-73
2021/03/15 12:30:32;;;;;;;2.50;1.50;;;;;;;;;;5073756;28;20469;-72
2021/03/15 12:32:58;;;;;;;4.83;1.57;;;;;;;;;;5085343;28;20453;-73
2021/03/15 12:35:25;;;;;;;4.97;1.40;;;9.70;1.00;;;;;;5073482;28;20770;-72
2021/03/15 12:37:52;;;;;;;1.20;0.97;;;9.70;1.00;;;;;;5072143;28;20425;-73
2021/03/15 12:40:39;;;;;;;1.27;1.13;;;;;;;;;;5060199;28;20424;-76
2021/03/15 12:43:10;;;;;;;1.80;1.40;;;;;;;;;;5073536;28;20801;-76
2021/03/15 12:45:36;;;;;;;2.27;1.63;;;9.70;1.00;;;;;;5073782;28;20401;-76
2021/03/15 12:48:02;;;;;;;6.87;1.80;;;9.90;1.00;;;;;;5063412;28;20418;-76
2021/03/15 12:50:34;;;;;;;2.67;1.70;;;10.00;1.00;;;;;;5053687;28;20218;-76
2021/03/15 12:53:04;;;;;;;3.00;1.97;;;10.20;1.00;;;;;;5053899;28;20880;-76
2021/03/15 12:55:40;;;;;;;4.80;2.00;;;10.40;1.00;;;;;;5065120;28;20536;-76
2021/03/15 12:58:17;;;;;;;3.90;1.50;;;10.60;1.00;;;;;;5070992;28;20754;-77
2021/03/15 13:00:46;;;;;;;6.70;1.70;;;10.90;1.00;;;;;;5071491;28;20434;-84
2021/03/15 13:03:16;;;;;;;6.17;1.93;;;10.90;1.00;;;;;;5072423;28;20627;-77
2021/03/15 13:06:10;;;;;;;2.00;1.83;;;10.90;1.00;;;;;;5073461;28;20418;-77
2021/03/15 13:08:41;;;;;;;2.00;1.70;;;10.90;1.00;;;;;;5089004;28;20803;-76
2021/03/15 13:11:07;;;;;;;2.30;1.70;;;10.60;1.00;;;;;;5057675;28;20803;-72
2021/03/15 13:13:32;;;;;;;2.40;1.20;;;10.70;1.00;;;;;;5053086;28;20426;-72
2021/03/15 13:15:58;;;;;;;1.83;1.07;;;10.70;1.00;;;;;;5053119;28;20539;-72
2021/03/15 13:18:24;;;;;;;1.73;1.40;;;;;;;;;;5054449;28;20247;-72
2021/03/15 13:20:50;;;;;;;2.30;1.47;;;10.70;1.00;;;;;;5062853;28;20193;-73
2021/03/15 13:23:16;;;;;;;1.60;0.97;;;10.90;1.00;;;;;;5077023;28;20448;-72
2021/03/15 13:25:46;;;;;;;1.20;1.10;;;10.90;1.00;;;;;;5076770;28;20287;-75
2021/03/15 13:28:16;;;;;;;1.83;1.70;;;11.10;1.00;;;;;;5079895;28;20194;-76
2021/03/15 13:30:43;;;;;;;1.93;1.20;;;11.40;1.00;;;;;;5077457;28;20410;-76
2021/03/15 13:33:12;;;;;;;1.47;1.07;;;;;;;;;;5072142;28;20549;-76
2021/03/15 13:35:41;;;;;;;1.33;1.23;;;11.30;1.00;;;;;;5076950;28;20464;-75
2021/03/15 13:38:11;;;;;;;1.70;1.40;;;11.20;1.00;;;;;;5095756;28;20432;-76
2021/03/15 13:40:37;;;;;;;3.00;0.90;;;11.20;1.00;;;;;;5097580;28;20424;-72
2021/03/15 13:43:04;;;;;;;3.23;1.10;;;11.30;1.00;;;;;;5093113;28;20469;-72